createdAt,value
2019-06-10T00:00:26.780Z,100329.47
2019-06-10T00:02:57.714Z,100330.55
2019-06-10T00:05:30.430Z,100332.36
2019-06-10T00:08:02.406Z,100325.90
2019-06-10T00:10:32.333Z,100323.06
2019-06-10T00:13:04.051Z,100320.09
2019-06-10T00:15:34.924Z,100324.48
2019-06-10T00:18:26.953Z,100324.81
2019-06-10T00:20:37.221Z,100315.48
2019-06-10T00:23:08.385Z,100304.70
2019-06-10T00:25:41.610Z,100301.66
2019-06-10T00:28:12.076Z,100301.00
2019-06-10T00:30:46.750Z,100305.48
2019-06-10T00:33:18.813Z,100305.47
2019-06-10T00:35:51.535Z,100308.99
2019-06-10T00:38:22.103Z,100303.26
2019-06-10T00:40:52.410Z,100302.67
2019-06-10T00:43:23.241Z,100292.16
2019-06-10T00:45:53.559Z,100284.22
2019-06-10T00:48:29.126Z,100286.99
2019-06-10T00:51:02.231Z,100285.23
2019-06-10T00:53:31.699Z,100274.64
2019-06-10T00:56:05.070Z,100269.27
2019-06-10T00:58:34.015Z,100270.93
2019-06-10T01:01:05.736Z,100270.45
2019-06-10T01:03:36.473Z,100268.48
2019-06-10T01:06:06.765Z,100265.56
2019-06-10T01:08:37.114Z,100271.70
2019-06-10T01:11:17.401Z,100266.42
2019-06-10T01:13:42.050Z,100261.95
2019-06-10T01:16:15.405Z,100265.73
2019-06-10T01:18:44.700Z,100259.63
2019-06-10T01:21:15.542Z,100259.98
2019-06-10T01:23:45.933Z,100265.17
2019-06-10T01:26:16.563Z,100268.93
2019-06-10T01:28:47.187Z,100270.14
2019-06-10T01:31:23.354Z,100261.52
2019-06-10T01:33:51.303Z,100251.09
2019-06-10T01:36:21.766Z,100255.48
2019-06-10T01:38:51.979Z,100260.50
2019-06-10T01:41:22.580Z,100265.33
2019-06-10T01:43:53.342Z,100257.53
2019-06-10T01:46:23.858Z,100245.33
2019-06-10T01:48:54.134Z,100232.95
2019-06-10T01:51:24.703Z,100241.84
2019-06-10T01:53:55.274Z,100234.22
2019-06-10T01:56:26.387Z,100227.00
2019-06-10T01:58:57.095Z,100228.77
2019-06-10T02:01:33.851Z,100234.36
2019-06-10T02:04:04.681Z,100233.79
2019-06-10T02:06:34.920Z,100237.80
2019-06-10T02:09:09.622Z,100231.99
2019-06-10T02:11:41.458Z,100237.00
2019-06-10T02:14:15.002Z,100228.31
2019-06-10T02:16:44.345Z,100239.02
2019-06-10T02:19:16.930Z,100229.55
2019-06-10T02:21:46.667Z,100226.87
2019-06-10T02:24:17.700Z,100219.45
2019-06-10T02:26:51.472Z,100202.81
2019-06-10T02:29:23.153Z,100191.30
2019-06-10T02:31:53.680Z,100188.46
2019-06-10T02:34:27.330Z,100169.49
2019-06-10T02:36:58.670Z,100170.49
2019-06-10T02:39:35.060Z,100168.28
2019-06-10T02:42:06.949Z,100173.89
2019-06-10T02:44:37.809Z,100170.21
2019-06-10T02:47:08.311Z,100180.27
2019-06-10T02:49:55.628Z,100175.95
2019-06-10T02:52:23.011Z,100168.52
2019-06-10T02:54:53.677Z,100160.03
2019-06-10T02:57:30.510Z,100161.05
2019-06-10T02:59:56.066Z,100158.95
2019-06-10T03:02:33.031Z,100154.76
2019-06-10T03:05:04.628Z,100153.97
2019-06-10T03:07:35.569Z,100151.70
2019-06-10T03:10:06.355Z,100154.84
2019-06-10T03:12:36.692Z,100153.63
2019-06-10T03:15:07.384Z,100148.38
2019-06-10T03:17:37.754Z,100142.31
2019-06-10T03:20:08.293Z,100136.93
2019-06-10T03:22:38.536Z,100138.81
2019-06-10T03:25:08.829Z,100146.06
2019-06-10T03:27:39.052Z,100148.74
2019-06-10T03:30:17.198Z,100152.30
2019-06-10T03:32:46.661Z,100147.69
2019-06-10T03:35:14.900Z,100145.77
2019-06-10T03:37:45.383Z,100147.88
2019-06-10T03:40:16.497Z,100148.13
2019-06-10T03:42:46.862Z,100156.48
2019-06-10T03:45:19.130Z,100160.48
2019-06-10T03:47:49.808Z,100164.36
2019-06-10T03:50:23.936Z,100166.41
2019-06-10T03:52:52.555Z,100164.59
2019-06-10T03:55:26.333Z,100155.20
2019-06-10T03:57:55.141Z,100159.70
2019-06-10T04:00:27.327Z,100160.62
2019-06-10T04:02:59.278Z,100174.52
2019-06-10T04:05:33.140Z,100181.12
2019-06-10T04:08:03.674Z,100171.62
2019-06-10T04:10:47.303Z,100159.81
2019-06-10T04:13:10.311Z,100154.17
2019-06-10T04:15:43.155Z,100158.07
2019-06-10T04:18:27.862Z,100150.45
2019-06-10T04:20:58.048Z,100141.30
2019-06-10T04:23:28.853Z,100149.19
2019-06-10T04:26:05.271Z,100159.78
2019-06-10T04:28:37.010Z,100162.58
2019-06-10T04:31:07.804Z,100166.33
2019-06-10T04:33:38.504Z,100160.37
2019-06-10T04:36:09.321Z,100153.33
2019-06-10T04:38:43.114Z,100142.25
2019-06-10T04:41:12.576Z,100131.72
2019-06-10T04:43:43.459Z,100119.48
2019-06-10T04:46:13.959Z,100128.47
2019-06-10T04:48:44.504Z,100148.23
2019-06-10T04:51:15.143Z,100160.02
2019-06-10T04:53:45.655Z,100162.52
2019-06-10T04:56:15.960Z,100158.59
2019-06-10T04:58:46.253Z,100158.30
2019-06-10T05:01:16.818Z,100151.12
2019-06-10T05:03:47.388Z,100146.16
2019-06-10T05:06:19.007Z,100131.81
2019-06-10T05:08:49.237Z,100116.61
2019-06-10T05:11:19.593Z,100110.74
2019-06-10T05:13:53.317Z,100116.67
2019-06-10T05:16:27.500Z,100117.94
2019-06-10T05:18:56.189Z,100118.30
2019-06-10T05:21:28.292Z,100116.38
2019-06-10T05:24:00.185Z,100121.72
2019-06-10T05:26:33.295Z,100121.23
2019-06-10T05:29:03.220Z,100107.65
2019-06-10T05:31:35.115Z,100115.22
2019-06-10T05:34:05.953Z,100117.39
2019-06-10T05:36:38.386Z,100117.67
2019-06-10T05:39:09.426Z,100115.41
2019-06-10T05:41:39.987Z,100122.97
2019-06-10T05:44:10.305Z,100118.44
2019-06-10T05:46:43.299Z,100120.84
2019-06-10T05:49:13.130Z,100117.09
2019-06-10T05:51:45.480Z,100120.76
2019-06-10T05:54:15.776Z,100123.84
2019-06-10T05:56:46.103Z,100120.55
2019-06-10T05:59:16.282Z,100120.28
2019-06-10T06:01:48.010Z,100109.53
2019-06-10T06:04:18.336Z,100106.59
2019-06-10T06:06:48.915Z,100100.89
2019-06-10T06:09:19.182Z,100096.55
2019-06-10T06:11:49.508Z,100095.17
2019-06-10T06:14:19.802Z,100097.59
2019-06-10T06:16:53.170Z,100087.90
2019-06-10T06:19:23.260Z,100091.08
2019-06-10T06:21:53.998Z,100091.36
2019-06-10T06:24:25.559Z,100085.77
2019-06-10T06:26:55.916Z,100092.53
2019-06-10T06:29:26.931Z,100097.21
2019-06-10T06:31:57.322Z,100100.44
2019-06-10T06:34:28.425Z,100101.22
2019-06-10T06:37:02.200Z,100101.55
2019-06-10T06:39:35.027Z,100102.28
2019-06-10T06:42:05.946Z,100101.69
2019-06-10T06:44:37.810Z,100105.63
2019-06-10T06:47:08.412Z,100103.00
2019-06-10T06:49:38.779Z,100106.95
2019-06-10T06:52:09.474Z,100109.13
2019-06-10T06:54:42.317Z,100104.34
2019-06-10T06:57:13.330Z,100100.09
2019-06-10T06:59:43.638Z,100092.67
2019-06-10T07:02:14.496Z,100097.00
2019-06-10T07:04:44.825Z,100101.17
2019-06-10T07:07:17.052Z,100101.22
2019-06-10T07:09:52.646Z,100091.52
2019-06-10T07:12:25.541Z,100093.45
2019-06-10T07:14:55.855Z,100100.12
2019-06-10T07:17:26.125Z,100091.72
2019-06-10T07:19:57.657Z,100089.45
2019-06-10T07:22:28.609Z,100086.92
2019-06-10T07:25:05.936Z,100087.84
2019-06-10T07:27:35.843Z,100084.20
2019-06-10T07:30:11.853Z,100088.02
2019-06-10T07:32:39.206Z,100087.92
2019-06-10T07:35:10.019Z,100075.75
2019-06-10T07:37:41.801Z,100074.98
2019-06-10T07:40:14.042Z,100078.67
2019-06-10T07:42:45.465Z,100073.97
2019-06-10T07:45:16.125Z,100066.44
2019-06-10T07:47:46.855Z,100067.83
2019-06-10T07:50:17.508Z,100060.36
2019-06-10T07:52:48.090Z,100057.93
2019-06-10T07:55:18.635Z,100058.73
2019-06-10T07:57:48.946Z,100062.55
2019-06-10T08:00:19.700Z,100061.03
2019-06-10T08:02:53.023Z,100059.79
2019-06-10T08:05:23.774Z,100056.33
2019-06-10T08:07:54.796Z,100064.17
2019-06-10T08:10:25.320Z,100056.51
2019-06-10T08:12:56.220Z,100053.81
2019-06-10T08:15:29.031Z,100055.41
2019-06-10T08:17:59.352Z,100055.90
2019-06-10T08:20:48.233Z,100050.90
2019-06-10T08:23:23.369Z,100050.33
2019-06-10T08:25:57.835Z,100044.33
2019-06-10T08:28:27.815Z,100051.52
2019-06-10T08:30:58.385Z,100048.80
2019-06-10T08:33:29.571Z,100059.17
2019-06-10T08:36:00.754Z,100061.36
2019-06-10T08:38:33.109Z,100060.94
2019-06-10T08:41:03.848Z,100061.45
2019-06-10T08:43:41.360Z,100058.69
2019-06-10T08:46:14.684Z,100056.38
2019-06-10T08:48:47.762Z,100056.36
2019-06-10T08:51:23.943Z,100052.39
2019-06-10T08:54:02.138Z,100059.03
2019-06-10T08:56:32.835Z,100066.69
2019-06-10T08:59:03.505Z,100075.81
2019-06-10T09:01:34.083Z,100081.08
2019-06-10T09:04:04.576Z,100072.80
2019-06-10T09:06:34.918Z,100071.00
2019-06-10T09:09:07.251Z,100066.28
2019-06-10T09:11:39.178Z,100071.59
2019-06-10T09:14:09.515Z,100070.02
2019-06-10T09:16:41.915Z,100068.80
2019-06-10T09:19:13.153Z,100066.03
2019-06-10T09:21:49.185Z,100064.56
2019-06-10T09:24:15.951Z,100070.61
2019-06-10T09:26:49.559Z,100071.77
2019-06-10T09:29:18.510Z,100072.61
2019-06-10T09:31:53.295Z,100077.98
2019-06-10T09:34:23.806Z,100074.91
2019-06-10T09:36:56.785Z,100080.13
2019-06-10T09:39:28.370Z,100081.16
2019-06-10T09:42:02.898Z,100082.46
2019-06-10T09:44:33.383Z,100075.09
2019-06-10T09:47:07.220Z,100077.19
2019-06-10T09:49:38.601Z,100076.82
2019-06-10T09:52:08.918Z,100080.84
2019-06-10T09:54:45.767Z,100082.55
2019-06-10T09:57:13.043Z,100086.59
2019-06-10T09:59:46.339Z,100083.20
2019-06-10T10:02:18.503Z,100080.08
2019-06-10T10:04:52.770Z,100077.09
2019-06-10T10:07:22.659Z,100080.55
2019-06-10T10:09:57.144Z,100084.81
2019-06-10T10:12:26.350Z,100079.86
2019-06-10T10:14:57.210Z,100070.28
2019-06-10T10:17:33.467Z,100068.77
2019-06-10T10:20:09.308Z,100071.91
2019-06-10T10:22:45.662Z,100068.39
2019-06-10T10:25:32.607Z,100076.76
2019-06-10T10:28:03.048Z,100079.69
2019-06-10T10:30:33.168Z,100078.83
2019-06-10T10:33:29.885Z,100080.36
2019-06-10T10:35:50.647Z,100075.27
2019-06-10T10:38:34.604Z,100065.44
2019-06-10T10:41:08.255Z,100072.52
2019-06-10T10:43:57.785Z,100073.36
2019-06-10T10:46:29.582Z,100062.48
2019-06-10T10:49:04.965Z,100058.03
2019-06-10T10:51:39.175Z,100050.81
2019-06-10T10:54:28.469Z,100051.52
2019-06-10T10:56:57.371Z,100049.61
2019-06-10T10:59:28.388Z,100043.06
2019-06-10T11:02:04.466Z,100040.76
2019-06-10T11:04:42.081Z,100024.50
2019-06-10T11:07:23.072Z,100027.59
2019-06-10T11:09:56.671Z,100025.24
2019-06-10T11:12:40.833Z,100024.22
2019-06-10T11:15:10.408Z,100013.13
2019-06-10T11:17:45.040Z,100013.00
2019-06-10T11:20:25.089Z,100010.41
2019-06-10T11:22:55.506Z,100011.54
2019-06-10T11:25:27.672Z,100003.95
2019-06-10T11:28:04.117Z,100001.61
2019-06-10T11:30:38.206Z,99988.05
2019-06-10T11:33:22.729Z,99985.03
2019-06-10T11:36:36.742Z,99983.02
2019-06-10T11:39:16.031Z,99985.03
2019-06-10T11:41:56.409Z,99991.03
2019-06-10T11:44:42.499Z,99987.89
2019-06-10T11:47:22.932Z,99981.23
2019-06-10T11:49:56.889Z,99969.67
2019-06-10T11:52:34.548Z,99965.48
2019-06-10T11:55:15.403Z,99963.50
2019-06-10T11:57:46.016Z,99962.13
2019-06-10T12:00:18.711Z,99957.81
2019-06-10T12:02:53.831Z,99949.84
2019-06-10T12:05:26.379Z,99943.23
2019-06-10T12:07:59.766Z,99941.19
2019-06-10T12:10:33.081Z,99939.39
2019-06-10T12:13:13.335Z,99933.46
2019-06-10T12:16:20.922Z,99932.17
2019-06-10T12:18:22.911Z,99931.73
2019-06-10T12:21:00.398Z,99930.20
2019-06-10T12:23:33.575Z,99922.83
2019-06-10T12:26:06.542Z,99916.12
2019-06-10T12:28:54.472Z,99908.70
2019-06-10T12:31:28.350Z,99911.69
2019-06-10T12:34:06.306Z,99917.58
2019-06-10T12:36:38.929Z,99908.56
2019-06-10T12:39:15.672Z,99908.27
2019-06-10T12:41:46.100Z,99908.06
2019-06-10T12:44:22.747Z,99893.45
2019-06-10T12:46:53.948Z,99894.39
2019-06-10T12:49:57.489Z,99883.27
2019-06-10T12:52:27.033Z,99874.45
2019-06-10T12:55:04.080Z,99871.31
2019-06-10T12:57:34.584Z,99870.81
2019-06-10T13:00:26.434Z,99869.39
2019-06-10T13:03:05.297Z,99858.22
2019-06-10T13:05:33.146Z,99858.73
2019-06-10T13:08:09.341Z,99857.13
2019-06-10T13:10:48.282Z,99857.92
2019-06-10T13:13:27.236Z,99856.24
2019-06-10T13:16:08.172Z,99852.12
2019-06-10T13:19:43.153Z,99846.08
2019-06-10T13:21:17.734Z,99844.55
2019-06-10T13:24:14.718Z,99840.37
2019-06-10T13:26:56.532Z,99836.36
2019-06-10T13:29:26.237Z,99832.13
2019-06-10T13:32:02.402Z,99818.63
2019-06-10T13:34:42.218Z,99817.55
2019-06-10T13:37:22.733Z,99815.30
2019-06-10T13:39:53.679Z,99817.34
2019-06-10T13:42:36.975Z,99816.32
2019-06-10T13:45:09.791Z,99815.91
2019-06-10T13:47:43.736Z,99810.31
2019-06-10T13:50:18.627Z,99810.21
2019-06-10T13:52:53.271Z,99795.33
2019-06-10T13:55:23.000Z,99796.93
2019-06-10T13:57:54.724Z,99799.72
2019-06-10T14:00:40.665Z,99805.50
2019-06-10T14:03:00.022Z,99797.34
2019-06-10T14:05:34.081Z,99795.02
2019-06-10T14:08:05.884Z,99803.55
2019-06-10T14:10:42.968Z,99798.02
2019-06-10T14:13:15.444Z,99791.25
2019-06-10T14:15:45.850Z,99781.41
2019-06-10T14:18:16.413Z,99782.84
2019-06-10T14:20:47.049Z,99785.05
2019-06-10T14:23:17.770Z,99780.10
2019-06-10T14:25:48.204Z,99778.19
2019-06-10T14:28:35.862Z,99771.67
2019-06-10T14:30:54.108Z,99767.03
2019-06-10T14:33:25.572Z,99767.19
2019-06-10T14:35:56.145Z,99771.72
2019-06-10T14:38:44.515Z,99775.66
2019-06-10T14:41:53.059Z,99779.16
2019-06-10T14:44:32.498Z,99783.40
2019-06-10T14:47:06.658Z,99771.36
2019-06-10T14:49:36.956Z,99769.28
2019-06-10T14:52:08.961Z,99766.52
2019-06-10T14:54:39.703Z,99764.15
2019-06-10T14:57:14.865Z,99763.43
2019-06-10T14:59:53.165Z,99761.91
2019-06-10T15:02:29.685Z,99759.50
2019-06-10T15:05:02.811Z,99754.55
2019-06-10T15:07:33.222Z,99752.74
2019-06-10T15:10:09.635Z,99751.70
2019-06-10T15:12:44.755Z,99742.84
2019-06-10T15:15:16.722Z,99741.36
2019-06-10T15:17:54.037Z,99725.78
2019-06-10T15:20:24.337Z,99722.70
2019-06-10T15:22:54.731Z,99717.16
2019-06-10T15:25:45.373Z,99714.14
2019-06-10T15:28:03.240Z,99706.84
2019-06-10T15:30:46.309Z,99710.64
2019-06-10T15:33:25.364Z,99703.00
2019-06-10T15:36:02.925Z,99701.35
2019-06-10T15:38:54.701Z,99710.93
2019-06-10T15:41:32.356Z,99715.62
2019-06-10T15:44:12.195Z,99708.17
2019-06-10T15:46:46.552Z,99706.19
2019-06-10T15:49:25.817Z,99701.11
2019-06-10T15:52:15.755Z,99700.79
2019-06-10T15:55:03.995Z,99704.84
2019-06-10T15:57:56.637Z,99703.47
2019-06-10T16:00:34.027Z,99706.23
2019-06-10T16:03:14.209Z,99704.02
2019-06-10T16:05:58.446Z,99706.83
2019-06-10T16:08:29.744Z,99708.14
2019-06-10T16:11:03.068Z,99716.95
2019-06-10T16:13:36.381Z,99714.86
2019-06-10T16:16:18.924Z,99713.72
2019-06-10T16:19:04.733Z,99710.64
2019-06-10T16:22:03.039Z,99709.61
2019-06-10T16:24:37.984Z,99706.83
2019-06-10T16:27:47.399Z,99710.20
2019-06-10T16:29:53.030Z,99709.47
2019-06-10T16:32:26.395Z,99706.31
2019-06-10T16:34:58.839Z,99714.77
2019-06-10T16:37:56.551Z,99716.77
2019-06-10T16:40:43.233Z,99713.27
2019-06-10T16:43:15.566Z,99720.92
2019-06-10T16:45:58.493Z,99724.50
2019-06-10T16:48:22.218Z,99718.61
2019-06-10T16:51:03.517Z,99717.65
2019-06-10T16:53:35.683Z,99720.14
2019-06-10T16:56:08.909Z,99728.13
2019-06-10T16:58:49.394Z,99728.17
2019-06-10T17:02:02.139Z,99723.28
2019-06-10T17:05:18.505Z,99727.97
2019-06-10T17:08:26.044Z,99729.25
2019-06-10T17:11:04.505Z,99741.45
2019-06-10T17:13:44.571Z,99741.00
2019-06-10T17:16:20.873Z,99735.15
2019-06-10T17:19:02.377Z,99730.44
2019-06-10T17:21:34.525Z,99725.67
2019-06-10T17:24:12.773Z,99733.28
2019-06-10T17:27:10.341Z,99732.70
2019-06-10T17:29:42.684Z,99719.34
2019-06-10T17:32:14.627Z,99716.89
2019-06-10T17:34:46.462Z,99714.00
2019-06-10T17:37:16.812Z,99700.09
2019-06-10T17:39:49.419Z,99696.23
2019-06-10T17:42:28.191Z,99695.13
2019-06-10T17:44:52.911Z,99697.08
2019-06-10T17:47:25.821Z,99695.53
2019-06-10T17:49:55.318Z,99703.37
2019-06-10T17:52:32.369Z,99702.75
2019-06-10T17:55:03.816Z,99703.18
2019-06-10T17:57:36.171Z,99705.05
2019-06-10T18:00:12.179Z,99713.58
2019-06-10T18:02:42.711Z,99701.70
2019-06-10T18:05:13.366Z,99688.90
2019-06-10T18:07:43.922Z,99679.28
2019-06-10T18:10:14.527Z,99687.08
2019-06-10T18:13:12.772Z,99698.61
2019-06-10T18:15:41.142Z,99704.47
2019-06-10T18:18:17.804Z,99694.29
2019-06-10T18:21:03.176Z,99685.75
2019-06-10T18:23:49.604Z,99682.50
2019-06-10T18:26:25.253Z,99679.48
2019-06-10T18:29:01.939Z,99674.19
2019-06-10T18:31:48.537Z,99667.54
2019-06-10T18:34:28.129Z,99661.77
2019-06-10T18:37:04.053Z,99639.27
2019-06-10T18:39:37.989Z,99633.11
2019-06-10T18:42:14.735Z,99626.13
2019-06-10T18:44:47.484Z,99626.21
2019-06-10T18:47:18.733Z,99650.41
2019-06-10T18:50:53.156Z,99696.31
2019-06-10T18:53:23.455Z,99719.17
2019-06-10T18:55:55.579Z,99724.97
2019-06-10T18:58:35.869Z,99706.36
2019-06-10T19:01:34.383Z,99694.42
2019-06-10T19:04:43.383Z,99708.30
2019-06-10T19:07:11.956Z,99742.07
2019-06-10T19:10:02.400Z,99758.65
2019-06-10T19:15:24.119Z,99775.31
2019-06-10T19:18:49.231Z,99770.00
2019-06-10T19:25:18.985Z,99804.01
2019-06-10T19:27:54.581Z,99846.34
2019-06-10T19:31:08.867Z,99866.86
2019-06-10T19:33:44.748Z,99854.62
2019-06-10T19:36:23.229Z,99850.95
2019-06-10T19:39:02.237Z,99848.84
2019-06-10T19:41:38.126Z,99828.63
2019-06-10T19:44:13.072Z,99816.25
2019-06-10T19:46:49.454Z,99798.84
2019-06-10T19:49:22.911Z,99802.05
2019-06-10T19:51:56.534Z,99810.17
2019-06-10T19:54:39.126Z,99808.27
2019-06-10T19:57:21.955Z,99793.39
2019-06-10T20:00:10.619Z,99771.45
2019-06-10T20:02:53.209Z,99740.95
2019-06-10T20:05:34.468Z,99692.59
2019-06-10T20:07:57.010Z,99677.52
2019-06-10T20:10:36.077Z,99671.02
2019-06-10T20:13:48.718Z,99670.48
2019-06-10T20:16:22.839Z,99672.03
2019-06-10T20:19:34.177Z,99678.80
2019-06-10T20:23:11.055Z,99658.66
2019-06-10T20:26:08.225Z,99633.51
2019-06-10T20:28:41.331Z,99639.91
2019-06-10T20:31:32.466Z,99652.29
2019-06-10T20:33:55.886Z,99655.44
2019-06-10T20:36:33.232Z,99651.16
2019-06-10T20:39:11.514Z,99642.22
2019-06-10T20:41:52.306Z,99641.03
2019-06-10T20:44:22.768Z,99642.59
2019-06-10T20:47:03.800Z,99637.52
2019-06-10T20:49:37.748Z,99649.02
2019-06-10T20:52:14.897Z,99647.58
2019-06-10T20:54:46.964Z,99638.65
2019-06-10T20:57:24.023Z,99631.97
2019-06-10T21:00:16.067Z,99620.89
2019-06-10T21:02:39.275Z,99621.20
2019-06-10T21:05:50.182Z,99621.84
2019-06-10T21:08:14.717Z,99616.66
2019-06-10T21:11:14.331Z,99618.25
2019-06-10T21:13:45.580Z,99612.45
2019-06-10T21:16:32.146Z,99610.22
2019-06-10T21:19:43.074Z,99615.47
2019-06-10T21:22:14.357Z,99624.75
2019-06-10T21:24:44.838Z,99634.90
2019-06-10T21:28:07.647Z,99647.33
2019-06-10T21:31:14.024Z,99674.86
2019-06-10T21:34:06.569Z,99704.22
2019-06-10T21:36:35.584Z,99707.43
2019-06-10T21:39:18.079Z,99705.70
2019-06-10T21:42:12.447Z,99711.88
2019-06-10T21:44:57.027Z,99733.41
2019-06-10T21:47:39.124Z,99744.80
2019-06-10T21:50:47.848Z,99743.61
2019-06-10T21:53:05.127Z,99754.52
2019-06-10T21:55:35.678Z,99768.19
2019-06-10T21:58:16.549Z,99781.80
2019-06-10T22:01:08.346Z,99782.89
2019-06-10T22:03:29.011Z,99777.58
2019-06-10T22:06:11.951Z,99772.20
2019-06-10T22:08:45.774Z,99778.57
2019-06-10T22:11:23.439Z,99777.23
2019-06-10T22:14:02.831Z,99782.97
2019-06-10T22:16:33.383Z,99773.70
2019-06-10T22:19:05.496Z,99766.69
2019-06-10T22:21:38.382Z,99762.23
2019-06-10T22:24:12.449Z,99750.92
2019-06-10T22:26:42.517Z,99743.59
2019-06-10T22:29:13.050Z,99738.30
2019-06-10T22:31:43.524Z,99721.05
2019-06-10T22:34:22.933Z,99710.34
2019-06-10T22:36:55.842Z,99704.06
2019-06-10T22:39:25.582Z,99694.88
2019-06-10T22:42:18.958Z,99696.81
2019-06-10T22:44:47.366Z,99684.98
2019-06-10T22:47:26.670Z,99690.25
2019-06-10T22:50:07.158Z,99693.05
2019-06-10T22:52:34.191Z,99698.69
2019-06-10T22:55:04.701Z,99704.44
2019-06-10T22:57:43.729Z,99702.67
2019-06-10T23:00:17.832Z,99695.39
2019-06-10T23:03:02.966Z,99699.70
2019-06-10T23:05:34.512Z,99690.52
2019-06-10T23:08:05.111Z,99682.69
2019-06-10T23:10:58.184Z,99682.98
2019-06-10T23:13:35.450Z,99689.06
2019-06-10T23:16:18.995Z,99685.92
2019-06-10T23:19:04.353Z,99680.84
2019-06-10T23:21:35.047Z,99676.69
2019-06-10T23:24:13.241Z,99677.05
2019-06-10T23:26:46.393Z,99682.39
2019-06-10T23:29:19.618Z,99687.70
2019-06-10T23:31:55.505Z,99689.47
2019-06-10T23:34:24.984Z,99691.27
2019-06-10T23:36:57.038Z,99694.77
2019-06-10T23:39:27.569Z,99698.82
2019-06-10T23:42:01.038Z,99709.97
2019-06-10T23:44:34.152Z,99724.55
2019-06-10T23:47:04.747Z,99737.19
2019-06-10T23:49:35.314Z,99738.84
2019-06-10T23:52:07.745Z,99752.39
2019-06-10T23:54:40.994Z,99758.88
2019-06-10T23:57:13.017Z,99751.41
2019-06-10T23:59:44.192Z,99743.81
